sensor_id;sensor_type;location;lat;lon;timestamp;pressure;altitude;pressure_sealevel;temperature;humidity
11041;BME280;5573;49.592;8.662;2023-03-25T00:01:47;99101.13;;;10.16;100.00
11041;BME280;5573;49.592;8.662;2023-03-25T00:04:14;99116.03;;;10.22;100.00
11041;BME280;5573;49.592;8.662;2023-03-25T00:06:43;99118.38;;;10.24;100.00
11041;BME280;5573;49.592;8.662;2023-03-25T00:09:11;99107.38;;;10.20;100.00
11041;BME280;5573;49.592;8.662;2023-03-25T00:11:39;99109.00;;;9.96;100.00
11041;BME280;5573;49.592;8.662;2023-03-25T00:14:08;99114.13;;;9.97;100.00
11041;BME280;5573;49.592;8.662;2023-03-25T00:16:37;99116.44;;;10.03;100.00
11041;BME280;5573;49.592;8.662;2023-03-25T00:19:05;99124.72;;;9.95;100.00
11041;BME280;5573;49.592;8.662;2023-03-25T00:21:34;99123.13;;;9.98;100.00
11041;BME280;5573;49.592;8.662;2023-03-25T00:24:03;99129.41;;;9.84;100.00
11041;BME280;5573;49.592;8.662;2023-03-25T00:26:30;99127.03;;;9.97;100.00
11041;BME280;5573;49.592;8.662;2023-03-25T00:28:58;99135.31;;;9.90;100.00
11041;BME280;5573;49.592;8.662;2023-03-25T00:31:27;99138.44;;;9.92;100.00
11041;BME280;5573;49.592;8.662;2023-03-25T00:33:55;99132.94;;;9.77;100.00
11041;BME280;5573;49.592;8.662;2023-03-25T00:36:23;99134.13;;;9.73;100.00
11041;BME280;5573;49.592;8.662;2023-03-25T00:38:51;99142.38;;;9.69;100.00
11041;BME280;5573;49.592;8.662;2023-03-25T00:41:21;99138.84;;;9.62;100.00
11041;BME280;5573;49.592;8.662;2023-03-25T00:43:52;99129.03;;;9.75;100.00
11041;BME280;5573;49.592;8.662;2023-03-25T00:46:20;99133.75;;;9.71;100.00
11041;BME280;5573;49.592;8.662;2023-03-25T00:48:50;99131.78;;;9.71;100.00
11041;BME280;5573;49.592;8.662;2023-03-25T00:51:18;99125.09;;;9.80;100.00
11041;BME280;5573;49.592;8.662;2023-03-25T00:53:47;99117.66;;;9.69;100.00
11041;BME280;5573;49.592;8.662;2023-03-25T00:56:17;99124.31;;;9.61;100.00
11041;BME280;5573;49.592;8.662;2023-03-25T00:58:45;99129.81;;;9.57;100.00
11041;BME280;5573;49.592;8.662;2023-03-25T01:01:14;99138.44;;;9.63;100.00
11041;BME280;5573;49.592;8.662;2023-03-25T01:03:43;99131.38;;;9.84;100.00
11041;BME280;5573;49.592;8.662;2023-03-25T01:06:15;99130.59;;;9.80;100.00
11041;BME280;5573;49.592;8.662;2023-03-25T01:08:43;99119.22;;;9.88;100.00
11041;BME280;5573;49.592;8.662;2023-03-25T01:11:17;99112.97;;;9.70;100.00
11041;BME280;5573;49.592;8.662;2023-03-25T01:13:48;99116.50;;;9.74;100.00
11041;BME280;5573;49.592;8.662;2023-03-25T01:16:16;99113.34;;;9.72;100.00
11041;BME280;5573;49.592;8.662;2023-03-25T01:18:44;99109.03;;;9.67;100.00
11041;BME280;5573;49.592;8.662;2023-03-25T01:21:13;99104.72;;;9.70;100.00
11041;BME280;5573;49.592;8.662;2023-03-25T01:23:41;99110.59;;;9.75;100.00
11041;BME280;5573;49.592;8.662;2023-03-25T01:26:09;99103.13;;;9.83;100.00
11041;BME280;5573;49.592;8.662;2023-03-25T01:28:39;99098.84;;;9.68;100.00
11041;BME280;5573;49.592;8.662;2023-03-25T01:31:08;99096.47;;;9.81;100.00
11041;BME280;5573;49.592;8.662;2023-03-25T01:33:36;99100.00;;;9.85;100.00
11041;BME280;5573;49.592;8.662;2023-03-25T01:36:05;99105.09;;;9.79;100.00
11041;BME280;5573;49.592;8.662;2023-03-25T01:38:36;99096.84;;;9.86;100.00
11041;BME280;5573;49.592;8.662;2023-03-25T01:41:05;99090.56;;;9.86;100.00
11041;BME280;5573;49.592;8.662;2023-03-25T01:43:33;99087.03;;;9.92;100.00
11041;BME280;5573;49.592;8.662;2023-03-25T01:46:01;99076.06;;;9.74;100.00
11041;BME280;5573;49.592;8.662;2023-03-25T01:48:32;99094.13;;;9.79;100.00
11041;BME280;5573;49.592;8.662;2023-03-25T01:51:05;99072.56;;;9.56;100.00
11041;BME280;5573;49.592;8.662;2023-03-25T01:53:38;99087.03;;;9.42;100.00
11041;BME280;5573;49.592;8.662;2023-03-25T01:56:08;99101.53;;;9.21;100.00
11041;BME280;5573;49.592;8.662;2023-03-25T01:58:39;99099.91;;;8.95;100.00
11041;BME280;5573;49.592;8.662;2023-03-25T02:01:07;99102.66;;;8.88;100.00
11041;BME280;5573;49.592;8.662;2023-03-25T02:03:39;99118.97;;;8.55;100.00
11041;BME280;5573;49.592;8.662;2023-03-25T02:06:15;99123.25;;;8.53;100.00
11041;BME280;5573;49.592;8.662;2023-03-25T02:08:45;99097.53;;;8.06;100.00
11041;BME280;5573;49.592;8.662;2023-03-25T02:11:13;99081.03;;;7.95;100.00
11041;BME280;5573;49.592;8.662;2023-03-25T02:13:41;99081.41;;;7.93;100.00
11041;BME280;5573;49.592;8.662;2023-03-25T02:16:19;99073.06;;;7.76;100.00
11041;BME280;5573;49.592;8.662;2023-03-25T02:19:04;99073.44;;;7.70;100.00
11041;BME280;5573;49.592;8.662;2023-03-25T02:22:05;99072.28;;;7.75;100.00
11041;BME280;5573;49.592;8.662;2023-03-25T02:24:59;99069.91;;;7.70;100.00
11041;BME280;5573;49.592;8.662;2023-03-25T02:27:54;99078.94;;;7.78;100.00
11041;BME280;5573;49.592;8.662;2023-03-25T02:30:51;99081.34;;;7.83;100.00
11041;BME280;5573;49.592;8.662;2023-03-25T02:33:45;99084.06;;;7.79;100.00
11041;BME280;5573;49.592;8.662;2023-03-25T02:36:43;99093.00;;;7.72;100.00
11041;BME280;5573;49.592;8.662;2023-03-25T02:39:23;99090.19;;;7.62;100.00
11041;BME280;5573;49.592;8.662;2023-03-25T02:42:04;99081.00;;;7.40;100.00
11041;BME280;5573;49.592;8.662;2023-03-25T02:44:38;99123.44;;;7.64;100.00
11041;BME280;5573;49.592;8.662;2023-03-25T02:47:10;99123.28;;;7.46;100.00
11041;BME280;5573;49.592;8.662;2023-03-25T02:49:43;99123.31;;;7.49;100.00
11041;BME280;5573;49.592;8.662;2023-03-25T02:52:15;99120.13;;;7.40;100.00
11041;BME280;5573;49.592;8.662;2023-03-25T02:54:46;99128.72;;;7.42;100.00
11041;BME280;5573;49.592;8.662;2023-03-25T02:57:18;99135.28;;;7.34;100.00
11041;BME280;5573;49.592;8.662;2023-03-25T02:59:49;99122.03;;;7.36;100.00
11041;BME280;5573;49.592;8.662;2023-03-25T03:02:20;99127.41;;;7.29;100.00
11041;BME280;5573;49.592;8.662;2023-03-25T03:04:53;99130.34;;;7.50;100.00
11041;BME280;5573;49.592;8.662;2023-03-25T03:07:24;99121.75;;;7.52;100.00
11041;BME280;5573;49.592;8.662;2023-03-25T03:10:07;99114.72;;;7.51;100.00
11041;BME280;5573;49.592;8.662;2023-03-25T03:12:51;99120.56;;;7.49;100.00
11041;BME280;5573;49.592;8.662;2023-03-25T03:15:32;99121.75;;;7.52;100.00
11041;BME280;5573;49.592;8.662;2023-03-25T03:18:09;99119.53;;;7.65;100.00
11041;BME280;5573;49.592;8.662;2023-03-25T03:20:49;99107.88;;;7.75;100.00
11041;BME280;5573;49.592;8.662;2023-03-25T03:23:26;99114.59;;;7.85;100.00
11041;BME280;5573;49.592;8.662;2023-03-25T03:26:02;99119.31;;;7.88;100.00
11041;BME280;5573;49.592;8.662;2023-03-25T03:28:42;99114.91;;;7.72;100.00
11041;BME280;5573;49.592;8.662;2023-03-25T03:31:14;99123.16;;;7.76;100.00
11041;BME280;5573;49.592;8.662;2023-03-25T03:34:08;99120.81;;;7.78;100.00
11041;BME280;5573;49.592;8.662;2023-03-25T03:36:44;99120.09;;;7.88;100.00
11041;BME280;5573;49.592;8.662;2023-03-25T03:39:18;99121.72;;;7.93;100.00
11041;BME280;5573;49.592;8.662;2023-03-25T03:41:52;99129.97;;;8.00;100.00
11041;BME280;5573;49.592;8.662;2023-03-25T03:44:24;99122.50;;;7.93;100.00
11041;BME280;5573;49.592;8.662;2023-03-25T03:46:57;99135.41;;;7.97;100.00
11041;BME280;5573;49.592;8.662;2023-03-25T03:49:28;99143.19;;;7.87;100.00
11041;BME280;5573;49.592;8.662;2023-03-25T03:52:02;99134.19;;;7.90;100.00
11041;BME280;5573;49.592;8.662;2023-03-25T03:54:38;99128.31;;;7.88;100.00
11041;BME280;5573;49.592;8.662;2023-03-25T03:57:12;99134.19;;;7.87;100.00
11041;BME280;5573;49.592;8.662;2023-03-25T03:59:46;99129.91;;;7.89;100.00
11041;BME280;5573;49.592;8.662;2023-03-25T04:02:21;99144.44;;;8.01;100.00
11041;BME280;5573;49.592;8.662;2023-03-25T04:04:50;99148.31;;;7.96;100.00
11041;BME280;5573;49.592;8.662;2023-03-25T04:07:22;99154.56;;;7.93;100.00
11041;BME280;5573;49.592;8.662;2023-03-25T04:09:56;99156.91;;;7.94;100.00
11041;BME280;5573;49.592;8.662;2023-03-25T04:12:31;99152.72;;;8.08;100.00
11041;BME280;5573;49.592;8.662;2023-03-25T04:15:02;99138.19;;;8.00;100.00
11041;BME280;5573;49.592;8.662;2023-03-25T04:17:30;99145.25;;;8.05;100.00
11041;BME280;5573;49.592;8.662;2023-03-25T04:19:59;99129.56;;;7.98;100.00
11041;BME280;5573;49.592;8.662;2023-03-25T04:22:27;99141.78;;;8.08;100.00
11041;BME280;5573;49.592;8.662;2023-03-25T04:24:54;99129.84;;;7.82;100.00
11041;BME280;5573;49.592;8.662;2023-03-25T04:27:25;99137.78;;;7.98;100.00
11041;BME280;5573;49.592;8.662;2023-03-25T04:29:56;99125.25;;;7.97;100.00
11041;BME280;5573;49.592;8.662;2023-03-25T04:32:27;99140.97;;;8.04;100.00
11041;BME280;5573;49.592;8.662;2023-03-25T04:34:55;99147.56;;;7.96;100.00
11041;BME280;5573;49.592;8.662;2023-03-25T04:37:23;99047.06;;;7.44;100.00
11041;BME280;5573;49.592;8.662;2023-03-25T04:39:51;99164.50;;;8.12;100.00
11041;BME280;5573;49.592;8.662;2023-03-25T04:42:21;99158.53;;;8.03;100.00
11041;BME280;5573;49.592;8.662;2023-03-25T04:44:51;99155.03;;;8.02;100.00
11041;BME280;5573;49.592;8.662;2023-03-25T04:47:22;99144.91;;;8.10;100.00
11041;BME280;5573;49.592;8.662;2023-03-25T04:49:51;99142.25;;;8.21;100.00
11041;BME280;5573;49.592;8.662;2023-03-25T04:52:18;99152.31;;;8.09;100.00
11041;BME280;5573;49.592;8.662;2023-03-25T04:54:46;99137.81;;;8.02;100.00
11041;BME280;5573;49.592;8.662;2023-03-25T04:57:14;99150.41;;;8.10;100.00
11041;BME280;5573;49.592;8.662;2023-03-25T04:59:42;99146.84;;;8.09;100.00
11041;BME280;5573;49.592;8.662;2023-03-25T05:02:10;99149.59;;;8.06;100.00
11041;BME280;5573;49.592;8.662;2023-03-25T05:04:40;99154.28;;;8.09;100.00
11041;BME280;5573;49.592;8.662;2023-03-25T05:07:12;99151.47;;;7.98;100.00
11041;BME280;5573;49.592;8.662;2023-03-25T05:09:42;99139.78;;;8.05;100.00
11041;BME280;5573;49.592;8.662;2023-03-25T05:12:10;99148.69;;;7.94;100.00
11041;BME280;5573;49.592;8.662;2023-03-25T05:14:37;99132.22;;;7.87;100.00
11041;BME280;5573;49.592;8.662;2023-03-25T05:17:05;99127.00;;;7.71;100.00
11041;BME280;5573;49.592;8.662;2023-03-25T05:19:33;99138.56;;;7.99;100.00
11041;BME280;5573;49.592;8.662;2023-03-25T05:22:02;99149.09;;;7.93;100.00
11041;BME280;5573;49.592;8.662;2023-03-25T05:24:30;99155.41;;;8.01;100.00
11041;BME280;5573;49.592;8.662;2023-03-25T05:26:58;99155.25;;;7.79;100.00
11041;BME280;5573;49.592;8.662;2023-03-25T05:29:27;99160.84;;;7.93;100.00
11041;BME280;5573;49.592;8.662;2023-03-25T05:31:59;99169.81;;;7.94;100.00
11041;BME280;5573;49.592;8.662;2023-03-25T05:34:27;99165.13;;;7.91;100.00
11041;BME280;5573;49.592;8.662;2023-03-25T05:36:56;99169.41;;;7.92;100.00
11041;BME280;5573;49.592;8.662;2023-03-25T05:39:25;99173.34;;;7.91;100.00
11041;BME280;5573;49.592;8.662;2023-03-25T05:41:53;99173.38;;;7.98;100.00
11041;BME280;5573;49.592;8.662;2023-03-25T05:44:21;99170.28;;;8.00;100.00
11041;BME280;5573;49.592;8.662;2023-03-25T05:46:48;99177.34;;;8.04;100.00
11041;BME280;5573;49.592;8.662;2023-03-25T05:49:16;99157.03;;;8.05;100.00
11041;BME280;5573;49.592;8.662;2023-03-25T05:51:44;99158.53;;;8.03;100.00
11041;BME280;5573;49.592;8.662;2023-03-25T05:54:14;99178.13;;;8.05;100.00
11041;BME280;5573;49.592;8.662;2023-03-25T05:56:43;99169.13;;;8.04;100.00
11041;BME280;5573;49.592;8.662;2023-03-25T05:59:12;99172.75;;;8.19;100.00
11041;BME280;5573;49.592;8.662;2023-03-25T06:01:39;99174.25;;;8.09;100.00
11041;BME280;5573;49.592;8.662;2023-03-25T06:04:11;99183.69;;;8.15;100.00
11041;BME280;5573;49.592;8.662;2023-03-25T06:06:39;99191.56;;;8.21;100.00
11041;BME280;5573;49.592;8.662;2023-03-25T06:09:07;99148.78;;;8.02;100.00
11041;BME280;5573;49.592;8.662;2023-03-25T06:11:35;99192.78;;;8.30;100.00
11041;BME280;5573;49.592;8.662;2023-03-25T06:14:06;99157.69;;;7.91;100.00
11041;BME280;5573;49.592;8.662;2023-03-25T06:16:34;99199.88;;;8.35;100.00
11041;BME280;5573;49.592;8.662;2023-03-25T06:19:02;99195.59;;;8.38;100.00
11041;BME280;5573;49.592;8.662;2023-03-25T06:21:33;99194.91;;;8.48;100.00
11041;BME280;5573;49.592;8.662;2023-03-25T06:24:01;99198.84;;;8.54;100.00
11041;BME280;5573;49.592;8.662;2023-03-25T06:26:29;99196.53;;;8.56;100.00
11041;BME280;5573;49.592;8.662;2023-03-25T06:28:59;99205.16;;;8.58;100.00
11041;BME280;5573;49.592;8.662;2023-03-25T06:31:29;99201.63;;;8.61;100.00
11041;BME280;5573;49.592;8.662;2023-03-25T06:34:00;99200.56;;;8.80;100.00
11041;BME280;5573;49.592;8.662;2023-03-25T06:36:28;99195.84;;;8.81;100.00
11041;BME280;5573;49.592;8.662;2023-03-25T06:38:56;99203.75;;;9.00;100.00
11041;BME280;5573;49.592;8.662;2023-03-25T06:41:25;99194.38;;;8.94;100.00
11041;BME280;5573;49.592;8.662;2023-03-25T06:44:09;99193.56;;;8.90;100.00
11041;BME280;5573;49.592;8.662;2023-03-25T06:47:01;99207.59;;;8.78;100.00
11041;BME280;5573;49.592;8.662;2023-03-25T06:49:38;99199.44;;;8.92;100.00
11041;BME280;5573;49.592;8.662;2023-03-25T06:52:06;99209.25;;;9.00;100.00
11041;BME280;5573;49.592;8.662;2023-03-25T06:54:34;99205.81;;;9.21;100.00
11041;BME280;5573;49.592;8.662;2023-03-25T06:57:02;99209.44;;;9.47;100.00
11041;BME280;5573;49.592;8.662;2023-03-25T06:59:30;99196.84;;;9.42;100.00
11041;BME280;5573;49.592;8.662;2023-03-25T07:01:58;99201.94;;;9.33;100.00
11041;BME280;5573;49.592;8.662;2023-03-25T07:04:27;99192.50;;;9.27;100.00
11041;BME280;5573;49.592;8.662;2023-03-25T07:06:55;99198.38;;;9.29;100.00
11041;BME280;5573;49.592;8.662;2023-03-25T07:09:23;99184.31;;;9.34;100.00
11041;BME280;5573;49.592;8.662;2023-03-25T07:11:51;99199.16;;;9.29;100.00
11041;BME280;5573;49.592;8.662;2023-03-25T07:14:19;99176.44;;;9.22;100.00
11041;BME280;5573;49.592;8.662;2023-03-25T07:16:47;99183.91;;;9.46;100.00
11041;BME280;5573;49.592;8.662;2023-03-25T07:19:15;99183.59;;;9.76;100.00
11041;BME280;5573;49.592;8.662;2023-03-25T07:21:44;99176.50;;;9.90;100.00
11041;BME280;5573;49.592;8.662;2023-03-25T07:24:12;99172.56;;;10.23;100.00
11041;BME280;5573;49.592;8.662;2023-03-25T07:26:40;99176.44;;;10.58;100.00
11041;BME280;5573;49.592;8.662;2023-03-25T07:29:10;99176.47;;;10.47;100.00
11041;BME280;5573;49.592;8.662;2023-03-25T07:31:37;99173.75;;;10.44;100.00
11041;BME280;5573;49.592;8.662;2023-03-25T07:34:06;99166.31;;;10.33;100.00
11041;BME280;5573;49.592;8.662;2023-03-25T07:36:34;99178.03;;;10.55;100.00
11041;BME280;5573;49.592;8.662;2023-03-25T07:39:04;99170.63;;;10.16;100.00
11041;BME280;5573;49.592;8.662;2023-03-25T07:41:33;99156.09;;;10.37;100.00
11041;BME280;5573;49.592;8.662;2023-03-25T07:44:09;99155.69;;;10.50;100.00
11041;BME280;5573;49.592;8.662;2023-03-25T07:46:37;99158.81;;;10.45;100.00
11041;BME280;5573;49.592;8.662;2023-03-25T07:49:05;99167.78;;;10.70;100.00
11041;BME280;5573;49.592;8.662;2023-03-25T07:51:33;99170.19;;;10.54;99.41
11041;BME280;5573;49.592;8.662;2023-03-25T07:54:01;99167.84;;;10.52;99.30
11041;BME280;5573;49.592;8.662;2023-03-25T07:56:33;99160.78;;;10.41;100.00
11041;BME280;5573;49.592;8.662;2023-03-25T07:59:01;99161.53;;;10.52;100.00
11041;BME280;5573;49.592;8.662;2023-03-25T08:01:29;99141.81;;;10.78;99.90
11041;BME280;5573;49.592;8.662;2023-03-25T08:03:57;99156.25;;;11.04;94.11
11041;BME280;5573;49.592;8.662;2023-03-25T08:06:48;99168.97;;;11.50;90.18
11041;BME280;5573;49.592;8.662;2023-03-25T08:09:16;99175.44;;;11.82;87.34
11041;BME280;5573;49.592;8.662;2023-03-25T08:11:46;99175.97;;;11.62;87.25
11041;BME280;5573;49.592;8.662;2023-03-25T08:14:14;99164.66;;;11.49;89.09
11041;BME280;5573;49.592;8.662;2023-03-25T08:16:42;99185.94;;;11.45;91.31
11041;BME280;5573;49.592;8.662;2023-03-25T08:19:09;99183.47;;;10.77;93.01
11041;BME280;5573;49.592;8.662;2023-03-25T08:21:37;99184.28;;;10.70;90.67
11041;BME280;5573;49.592;8.662;2023-03-25T08:24:05;99187.88;;;10.56;91.57
11041;BME280;5573;49.592;8.662;2023-03-25T08:26:33;99193.75;;;10.55;90.79
11041;BME280;5573;49.592;8.662;2023-03-25T08:29:03;99191.31;;;10.82;89.25
11041;BME280;5573;49.592;8.662;2023-03-25T08:31:31;99198.00;;;10.88;89.32
11041;BME280;5573;49.592;8.662;2023-03-25T08:34:00;99215.66;;;10.91;90.32
11041;BME280;5573;49.592;8.662;2023-03-25T08:36:28;99194.84;;;10.83;93.74
11041;BME280;5573;49.592;8.662;2023-03-25T08:38:55;99187.38;;;10.87;95.90
11041;BME280;5573;49.592;8.662;2023-03-25T08:41:24;99204.28;;;10.92;99.32
11041;BME280;5573;49.592;8.662;2023-03-25T08:43:52;99197.91;;;11.06;96.88
11041;BME280;5573;49.592;8.662;2023-03-25T08:46:21;99177.91;;;10.98;94.06
11041;BME280;5573;49.592;8.662;2023-03-25T08:48:49;99187.66;;;11.14;95.14
11041;BME280;5573;49.592;8.662;2023-03-25T08:51:17;99196.31;;;11.12;95.42
11041;BME280;5573;49.592;8.662;2023-03-25T08:53:45;99184.13;;;11.10;100.00
11041;BME280;5573;49.592;8.662;2023-03-25T08:56:13;99193.56;;;11.09;100.00
11041;BME280;5573;49.592;8.662;2023-03-25T08:58:41;99182.59;;;11.02;100.00
11041;BME280;5573;49.592;8.662;2023-03-25T09:01:09;99175.25;;;10.73;100.00
11041;BME280;5573;49.592;8.662;2023-03-25T09:03:39;99170.19;;;10.61;100.00
11041;BME280;5573;49.592;8.662;2023-03-25T09:06:08;99157.19;;;10.58;100.00
11041;BME280;5573;49.592;8.662;2023-03-25T09:08:36;99161.88;;;10.72;100.00
11041;BME280;5573;49.592;8.662;2023-03-25T09:11:04;99170.94;;;10.65;100.00
11041;BME280;5573;49.592;8.662;2023-03-25T09:13:32;99165.41;;;10.80;100.00
11041;BME280;5573;49.592;8.662;2023-03-25T09:16:00;99172.41;;;10.95;100.00
11041;BME280;5573;49.592;8.662;2023-03-25T09:18:28;99171.19;;;11.03;97.67
11041;BME280;5573;49.592;8.662;2023-03-25T09:20:59;99170.72;;;11.23;100.00
11041;BME280;5573;49.592;8.662;2023-03-25T09:23:27;99178.28;;;11.01;100.00
11041;BME280;5573;49.592;8.662;2023-03-25T09:25:58;99141.84;;;10.68;96.80
11041;BME280;5573;49.592;8.662;2023-03-25T09:28:27;99157.13;;;10.83;95.87
11041;BME280;5573;49.592;8.662;2023-03-25T09:30:55;99172.88;;;10.68;100.00
11041;BME280;5573;49.592;8.662;2023-03-25T09:33:24;99161.50;;;10.70;100.00
11041;BME280;5573;49.592;8.662;2023-03-25T09:35:53;99163.81;;;10.86;99.18
11041;BME280;5573;49.592;8.662;2023-03-25T09:38:22;99174.13;;;10.53;100.00
11041;BME280;5573;49.592;8.662;2023-03-25T09:40:50;99176.50;;;10.44;100.00
11041;BME280;5573;49.592;8.662;2023-03-25T09:43:35;99185.16;;;10.17;100.00
11041;BME280;5573;49.592;8.662;2023-03-25T09:46:06;99181.22;;;10.22;100.00
11041;BME280;5573;49.592;8.662;2023-03-25T09:48:36;99166.28;;;10.48;100.00
11041;BME280;5573;49.592;8.662;2023-03-25T09:51:10;99172.97;;;10.50;100.00
11041;BME280;5573;49.592;8.662;2023-03-25T09:53:44;99176.47;;;10.54;100.00
11041;BME280;5573;49.592;8.662;2023-03-25T09:56:16;99178.09;;;10.37;100.00
11041;BME280;5573;49.592;8.662;2023-03-25T09:58:46;99166.69;;;10.14;100.00
11041;BME280;5573;49.592;8.662;2023-03-25T10:01:22;99173.78;;;10.04;100.00
11041;BME280;5573;49.592;8.662;2023-03-25T10:04:01;99163.53;;;10.26;100.00
11041;BME280;5573;49.592;8.662;2023-03-25T10:06:39;99159.56;;;10.60;100.00
11041;BME280;5573;49.592;8.662;2023-03-25T10:09:29;99170.97;;;10.54;100.00
11041;BME280;5573;49.592;8.662;2023-03-25T10:12:06;99157.69;;;10.10;100.00
11041;BME280;5573;49.592;8.662;2023-03-25T10:14:53;99173.19;;;10.92;100.00
11041;BME280;5573;49.592;8.662;2023-03-25T10:17:29;99171.31;;;11.55;100.00
11041;BME280;5573;49.592;8.662;2023-03-25T10:20:06;99173.84;;;11.25;100.00
11041;BME280;5573;49.592;8.662;2023-03-25T10:22:43;99178.19;;;11.18;100.00
11041;BME280;5573;49.592;8.662;2023-03-25T10:25:22;99182.44;;;11.34;100.00
11041;BME280;5573;49.592;8.662;2023-03-25T10:27:51;99180.81;;;11.44;100.00
11041;BME280;5573;49.592;8.662;2023-03-25T10:30:22;99170.94;;;11.53;100.00
11041;BME280;5573;49.592;8.662;2023-03-25T10:32:53;99172.19;;;11.38;98.14
11041;BME280;5573;49.592;8.662;2023-03-25T10:35:24;99175.91;;;11.69;100.00
11041;BME280;5573;49.592;8.662;2023-03-25T10:37:57;99183.41;;;12.21;100.00
11041;BME280;5573;49.592;8.662;2023-03-25T10:40:30;99191.19;;;12.33;99.83
11041;BME280;5573;49.592;8.662;2023-03-25T10:43:11;99178.34;;;12.54;91.48
11041;BME280;5573;49.592;8.662;2023-03-25T10:45:43;99182.72;;;12.51;87.12
11041;BME280;5573;49.592;8.662;2023-03-25T10:48:16;99177.34;;;12.37;88.89
11041;BME280;5573;49.592;8.662;2023-03-25T10:50:47;99178.78;;;12.11;88.36
11041;BME280;5573;49.592;8.662;2023-03-25T10:53:19;99166.25;;;12.03;90.64
11041;BME280;5573;49.592;8.662;2023-03-25T10:55:54;99151.41;;;11.86;91.27
11041;BME280;5573;49.592;8.662;2023-03-25T10:58:24;99140.03;;;11.80;90.98
11041;BME280;5573;49.592;8.662;2023-03-25T11:00:53;99137.19;;;11.91;92.54
11041;BME280;5573;49.592;8.662;2023-03-25T11:03:25;99147.75;;;11.47;100.00
11041;BME280;5573;49.592;8.662;2023-03-25T11:05:55;99146.44;;;10.99;100.00
11041;BME280;5573;49.592;8.662;2023-03-25T11:08:23;99173.38;;;10.42;100.00
11041;BME280;5573;49.592;8.662;2023-03-25T11:10:53;99210.25;;;9.90;100.00
11041;BME280;5573;49.592;8.662;2023-03-25T11:13:24;99203.94;;;9.50;100.00
11041;BME280;5573;49.592;8.662;2023-03-25T11:15:54;99202.31;;;9.35;100.00
11041;BME280;5573;49.592;8.662;2023-03-25T11:18:26;99197.66;;;9.43;100.00
11041;BME280;5573;49.592;8.662;2023-03-25T11:20:56;99195.66;;;9.32;100.00
11041;BME280;5573;49.592;8.662;2023-03-25T11:23:30;99209.00;;;9.38;100.00
11041;BME280;5573;49.592;8.662;2023-03-25T11:26:04;99211.78;;;9.52;100.00
11041;BME280;5573;49.592;8.662;2023-03-25T11:28:35;99220.44;;;9.68;100.00
11041;BME280;5573;49.592;8.662;2023-03-25T11:31:06;99223.22;;;9.90;100.00
11041;BME280;5573;49.592;8.662;2023-03-25T11:33:35;99228.34;;;10.13;100.00
11041;BME280;5573;49.592;8.662;2023-03-25T11:36:15;99225.19;;;10.00;100.00
11041;BME280;5573;49.592;8.662;2023-03-25T11:38:51;99234.97;;;9.72;100.00
11041;BME280;5573;49.592;8.662;2023-03-25T11:41:21;99221.25;;;9.80;100.00
11041;BME280;5573;49.592;8.662;2023-03-25T11:43:49;99227.56;;;9.91;100.00
11041;BME280;5573;49.592;8.662;2023-03-25T11:46:19;99228.31;;;9.77;100.00
11041;BME280;5573;49.592;8.662;2023-03-25T11:48:48;99230.28;;;9.94;100.00
11041;BME280;5573;49.592;8.662;2023-03-25T11:51:19;99234.66;;;10.31;100.00
11041;BME280;5573;49.592;8.662;2023-03-25T11:53:54;99214.19;;;10.54;100.00
11041;BME280;5573;49.592;8.662;2023-03-25T11:56:29;99222.75;;;10.85;100.00
11041;BME280;5573;49.592;8.662;2023-03-25T11:59:00;99225.47;;;11.03;100.00
11041;BME280;5573;49.592;8.662;2023-03-25T12:01:45;99210.59;;;10.78;100.00
11041;BME280;5573;49.592;8.662;2023-03-25T12:04:16;99091.78;;;9.74;100.00
11041;BME280;5573;49.592;8.662;2023-03-25T12:06:53;99214.81;;;11.12;100.00
11041;BME280;5573;49.592;8.662;2023-03-25T12:09:23;99229.56;;;11.50;100.00
11041;BME280;5573;49.592;8.662;2023-03-25T12:12:06;99227.91;;;11.64;100.00
11041;BME280;5573;49.592;8.662;2023-03-25T12:14:46;99206.97;;;11.77;100.00
11041;BME280;5573;49.592;8.662;2023-03-25T12:17:26;99209.66;;;11.88;91.68
11041;BME280;5573;49.592;8.662;2023-03-25T12:20:04;99215.31;;;12.22;89.16
11041;BME280;5573;49.592;8.662;2023-03-25T12:22:50;99215.22;;;11.80;88.10
11041;BME280;5573;49.592;8.662;2023-03-25T12:25:24;99216.56;;;12.14;89.20
11041;BME280;5573;49.592;8.662;2023-03-25T12:28:07;99220.09;;;12.59;82.07
11041;BME280;5573;49.592;8.662;2023-03-25T12:30:46;99204.34;;;12.56;78.53
11041;BME280;5573;49.592;8.662;2023-03-25T12:33:26;99203.16;;;12.16;80.11
11041;BME280;5573;49.592;8.662;2023-03-25T12:36:09;99193.13;;;11.91;84.20
11041;BME280;5573;49.592;8.662;2023-03-25T12:38:49;99196.66;;;12.37;80.90
11041;BME280;5573;49.592;8.662;2023-03-25T12:41:21;99213.91;;;12.48;77.62
11041;BME280;5573;49.592;8.662;2023-03-25T12:44:01;99200.09;;;12.48;79.99
11041;BME280;5573;49.592;8.662;2023-03-25T12:46:51;99198.13;;;12.49;79.57
11041;BME280;5573;49.592;8.662;2023-03-25T12:49:35;99193.84;;;12.82;77.33
11041;BME280;5573;49.592;8.662;2023-03-25T12:52:10;99200.84;;;12.52;74.68
11041;BME280;5573;49.592;8.662;2023-03-25T12:54:56;99195.72;;;12.54;75.81
11041;BME280;5573;49.592;8.662;2023-03-25T12:57:37;99181.66;;;13.10;74.96
11041;BME280;5573;49.592;8.662;2023-03-25T13:00:37;99175.91;;;13.28;67.67
11041;BME280;5573;49.592;8.662;2023-03-25T13:03:27;99174.78;;;12.91;69.16
11041;BME280;5573;49.592;8.662;2023-03-25T13:06:09;99166.50;;;12.57;74.73
11041;BME280;5573;49.592;8.662;2023-03-25T13:08:45;99190.09;;;12.24;79.33
11041;BME280;5573;49.592;8.662;2023-03-25T13:11:20;99193.97;;;12.30;85.97
11041;BME280;5573;49.592;8.662;2023-03-25T13:13:52;99193.56;;;12.31;85.02
11041;BME280;5573;49.592;8.662;2023-03-25T13:16:24;99185.09;;;12.53;82.63
11041;BME280;5573;49.592;8.662;2023-03-25T13:18:59;99185.50;;;12.86;82.43
11041;BME280;5573;49.592;8.662;2023-03-25T13:21:32;99166.56;;;13.18;81.11
11041;BME280;5573;49.592;8.662;2023-03-25T13:24:05;99172.09;;;13.18;75.28
11041;BME280;5573;49.592;8.662;2023-03-25T13:26:34;99157.53;;;13.14;67.41
11041;BME280;5573;49.592;8.662;2023-03-25T13:29:04;99155.44;;;13.80;65.06
11041;BME280;5573;49.592;8.662;2023-03-25T13:31:37;99164.84;;;13.82;63.53
11041;BME280;5573;49.592;8.662;2023-03-25T13:34:18;99161.50;;;14.42;60.27